Time;durP1;ratioP1;P1;durP2;ratioP2;P2;SDS_P1;SDS_P2;PMS_P1;PMS_P2;Temp;Humidity;BMP_temperature;BMP_pressure;BME280_temperature;BME280_humidity;BME280_pressure;Samples;Min_cycle;Max_cycle;Signal;HPM_P1;HPM_P2
2023/07/07 00:00:14;;;;;;;18.67;17.42;;;10.60;99.90;;;;;;4993641;28;20042;-69
2023/07/07 00:02:42;;;;;;;18.45;17.05;;;10.50;99.90;;;;;;4994790;28;20050;-70
2023/07/07 00:05:09;;;;;;;17.77;16.63;;;10.50;99.90;;;;;;4996530;28;20053;-70
2023/07/07 00:07:36;;;;;;;17.65;16.50;;;10.50;99.90;;;;;;4992269;28;20081;-70
2023/07/07 00:10:03;;;;;;;18.05;16.98;;;10.40;99.90;;;;;;4994590;28;20057;-71
2023/07/07 00:12:31;;;;;;;18.73;17.42;;;10.20;99.90;;;;;;4995497;28;20124;-71
2023/07/07 00:14:57;;;;;;;18.88;17.73;;;10.10;99.90;;;;;;4990487;28;20767;-70
2023/07/07 00:17:24;;;;;;;19.02;17.60;;;10.40;99.90;;;;;;4997192;28;20049;-71
2023/07/07 00:19:52;;;;;;;18.10;17.00;;;10.30;99.90;;;;;;4992857;28;20077;-71
2023/07/07 00:22:19;;;;;;;18.23;16.92;;;10.40;99.90;;;;;;4997842;28;20232;-70
2023/07/07 00:24:46;;;;;;;18.60;17.30;;;10.30;99.90;;;;;;4994871;28;20612;-71
2023/07/07 00:27:14;;;;;;;18.00;16.67;;;10.10;99.90;;;;;;4996065;28;20104;-70
2023/07/07 00:29:41;;;;;;;18.13;16.92;;;10.10;99.90;;;;;;4991563;28;20073;-70
2023/07/07 00:32:08;;;;;;;18.92;17.63;;;10.20;99.90;;;;;;4995713;28;20683;-72
2023/07/07 00:34:34;;;;;;;18.23;17.08;;;10.30;99.90;;;;;;4992459;28;20248;-70
2023/07/07 00:37:01;;;;;;;18.35;17.23;;;10.30;99.90;;;;;;4977546;28;20042;-71
2023/07/07 00:39:28;;;;;;;19.35;17.65;;;10.20;99.90;;;;;;4990905;28;20066;-71
2023/07/07 00:41:56;;;;;;;19.67;18.13;;;10.10;99.90;;;;;;4979057;28;20048;-70
2023/07/07 00:44:28;;;;;;;19.60;18.05;;;10.10;99.90;;;;;;4991885;28;20598;-70
2023/07/07 00:46:55;;;;;;;19.38;17.90;;;10.10;99.90;;;;;;4992193;28;20046;-70
2023/07/07 00:49:24;;;;;;;19.67;18.40;;;10.20;99.90;;;;;;4994836;28;20141;-70
2023/07/07 00:51:58;;;;;;;19.13;17.85;;;10.30;99.90;;;;;;4997683;28;20046;-70
2023/07/07 00:54:31;;;;;;;19.95;18.17;;;10.30;99.90;;;;;;4998327;28;20073;-71
2023/07/07 00:56:59;;;;;;;18.17;16.88;;;10.20;99.90;;;;;;4996459;28;20110;-69
2023/07/07 00:59:31;;;;;;;19.38;17.98;;;10.20;99.90;;;;;;5006094;28;20042;-71
2023/07/07 01:02:02;;;;;;;19.00;17.13;;;10.20;99.90;;;;;;5011897;28;20043;-69
2023/07/07 01:04:30;;;;;;;18.27;17.08;;;10.20;99.90;;;;;;5008943;28;20100;-69
2023/07/07 01:07:22;;;;;;;18.15;16.98;;;10.20;99.90;;;;;;4998810;28;20041;-70
2023/07/07 01:09:49;;;;;;;17.48;16.38;;;10.10;99.90;;;;;;4989451;28;21117;-69
2023/07/07 01:12:16;;;;;;;18.08;16.77;;;10.10;99.90;;;;;;4994428;28;20132;-70
2023/07/07 01:14:44;;;;;;;17.35;16.23;;;10.10;99.90;;;;;;4992410;28;20573;-69
2023/07/07 01:17:31;;;;;;;18.08;16.88;;;9.90;99.90;;;;;;4986111;28;20081;-71
2023/07/07 01:20:08;;;;;;;17.48;16.20;;;9.70;99.90;;;;;;4994329;28;20046;-73
2023/07/07 01:23:09;;;;;;;19.08;17.52;;;9.70;99.90;;;;;;4974181;28;20525;-70
2023/07/07 01:26:01;;;;;;;19.88;17.98;;;9.80;99.90;;;;;;4975703;28;20041;-71
2023/07/07 01:29:05;;;;;;;18.77;17.23;;;9.80;99.90;;;;;;5002358;28;20053;-70
2023/07/07 01:31:40;;;;;;;17.92;16.77;;;9.70;99.90;;;;;;4997095;28;20100;-69
2023/07/07 01:34:10;;;;;;;18.08;16.77;;;9.60;99.90;;;;;;4993244;28;20049;-72
2023/07/07 01:36:37;;;;;;;18.40;17.13;;;9.50;99.90;;;;;;4992992;28;20061;-71
2023/07/07 01:39:05;;;;;;;17.98;16.70;;;9.50;99.90;;;;;;4968889;28;20417;-72
2023/07/07 01:41:52;;;;;;;18.27;16.95;;;9.40;99.90;;;;;;4991441;28;20057;-72
2023/07/07 01:44:33;;;;;;;18.67;17.27;;;9.40;99.90;;;;;;4997561;28;20670;-69
2023/07/07 01:47:12;;;;;;;17.95;16.73;;;9.60;99.90;;;;;;4994136;28;20081;-69
2023/07/07 01:49:50;;;;;;;17.83;16.70;;;9.70;99.90;;;;;;4986244;28;20045;-72
2023/07/07 01:52:26;;;;;;;16.58;15.57;;;9.60;99.90;;;;;;4993313;28;20057;-69
2023/07/07 01:54:59;;;;;;;16.35;15.25;;;9.40;99.90;;;;;;4993429;28;20045;-69
2023/07/07 01:57:28;;;;;;;16.95;15.45;;;9.30;99.90;;;;;;4991569;28;20054;-70
2023/07/07 01:59:55;;;;;;;15.80;14.80;;;9.40;99.90;;;;;;4994731;28;20048;-69
2023/07/07 02:02:23;;;;;;;16.38;15.38;;;9.40;99.90;;;;;;4995887;28;20537;-69
2023/07/07 02:04:50;;;;;;;16.85;15.52;;;9.40;99.90;;;;;;4989020;28;20046;-70
2023/07/07 02:07:17;;;;;;;16.58;15.48;;;9.30;99.90;;;;;;4988013;28;20061;-70
2023/07/07 02:09:44;;;;;;;17.58;16.20;;;9.30;99.90;;;;;;4988990;28;20050;-70
2023/07/07 02:12:11;;;;;;;17.25;15.85;;;9.20;99.90;;;;;;4985851;28;20049;-70
2023/07/07 02:14:37;;;;;;;16.80;15.52;;;9.10;99.90;;;;;;4986454;28;20478;-71
2023/07/07 02:17:04;;;;;;;16.77;15.65;;;9.30;99.90;;;;;;5005989;28;20061;-71
2023/07/07 02:19:31;;;;;;;15.93;14.82;;;9.40;99.90;;;;;;4991294;28;20714;-70
2023/07/07 02:21:58;;;;;;;15.80;14.73;;;9.20;99.90;;;;;;4991101;28;20057;-71
2023/07/07 02:24:27;;;;;;;15.98;14.65;;;9.20;99.90;;;;;;4989930;28;20038;-71
2023/07/07 02:26:53;;;;;;;15.63;14.52;;;9.20;99.90;;;;;;4989285;28;20042;-71
2023/07/07 02:29:20;;;;;;;16.67;15.57;;;9.10;99.90;;;;;;4980376;28;20050;-71
2023/07/07 02:31:47;;;;;;;15.88;14.93;;;9.10;99.90;;;;;;4988540;28;20470;-72
2023/07/07 02:34:14;;;;;;;16.40;15.15;;;9.20;99.90;;;;;;4992173;28;20133;-72
2023/07/07 02:36:40;;;;;;;18.08;16.60;;;9.30;99.90;;;;;;4990805;28;20043;-69
2023/07/07 02:39:07;;;;;;;17.05;15.80;;;9.20;99.90;;;;;;4992024;28;20124;-70
2023/07/07 02:41:34;;;;;;;16.70;15.35;;;9.30;99.90;;;;;;4992272;28;20042;-69
2023/07/07 02:44:02;;;;;;;16.70;15.50;;;9.20;99.90;;;;;;4989909;28;20042;-69
2023/07/07 02:46:29;;;;;;;16.10;14.90;;;9.10;99.90;;;;;;4989529;28;20042;-69
2023/07/07 02:48:56;;;;;;;16.08;14.77;;;9.00;99.90;;;;;;4995043;28;20038;-72
2023/07/07 02:51:22;;;;;;;16.13;15.13;;;9.00;99.90;;;;;;4990322;28;20508;-70
2023/07/07 02:53:49;;;;;;;16.50;15.43;;;8.90;99.90;;;;;;4994231;28;20042;-72
2023/07/07 02:56:16;;;;;;;16.50;15.40;;;8.90;99.90;;;;;;4991456;28;20641;-72
2023/07/07 02:58:43;;;;;;;17.67;16.40;;;8.80;99.90;;;;;;4992385;28;20124;-71
2023/07/07 03:01:15;;;;;;;16.48;15.27;;;8.80;99.90;;;;;;4987512;28;20052;-72
2023/07/07 03:03:44;;;;;;;17.30;16.00;;;8.80;99.90;;;;;;4984579;28;20165;-72
2023/07/07 03:06:19;;;;;;;16.90;15.70;;;8.80;99.90;;;;;;4993707;28;20038;-71
2023/07/07 03:08:48;;;;;;;16.35;15.15;;;8.80;99.90;;;;;;4990416;28;20409;-72
2023/07/07 03:11:18;;;;;;;16.27;15.20;;;8.80;99.90;;;;;;4987536;28;20504;-70
2023/07/07 03:13:47;;;;;;;16.63;15.45;;;8.80;99.90;;;;;;4989043;28;20046;-71
2023/07/07 03:16:23;;;;;;;17.15;15.95;;;8.80;99.90;;;;;;4988355;28;20046;-71
2023/07/07 03:18:59;;;;;;;17.00;15.70;;;8.80;99.90;;;;;;4998986;28;20041;-71
2023/07/07 03:21:28;;;;;;;17.27;15.68;;;9.00;99.90;;;;;;4993110;28;20084;-73
2023/07/07 03:24:04;;;;;;;16.67;15.55;;;8.90;99.90;;;;;;4993870;28;20042;-69
2023/07/07 03:26:31;;;;;;;17.02;15.80;;;9.00;99.90;;;;;;4990795;28;20046;-70
2023/07/07 03:29:02;;;;;;;16.63;15.30;;;9.00;99.90;;;;;;4992950;28;20706;-71
2023/07/07 03:31:33;;;;;;;16.13;14.93;;;9.00;99.90;;;;;;4994970;28;20415;-69
2023/07/07 03:34:03;;;;;;;18.40;14.27;;;8.90;99.90;;;;;;4970791;28;20093;-69
2023/07/07 03:36:35;;;;;;;15.82;14.60;;;8.90;99.90;;;;;;4990204;28;20050;-70
2023/07/07 03:39:04;;;;;;;16.40;15.20;;;8.80;99.90;;;;;;4987928;28;20050;-69
2023/07/07 03:41:31;;;;;;;17.55;16.45;;;8.80;99.90;;;;;;4989649;28;20735;-69
2023/07/07 03:44:01;;;;;;;17.27;16.05;;;8.80;99.90;;;;;;4990929;28;20444;-72
2023/07/07 03:46:31;;;;;;;18.70;17.02;;;8.80;99.90;;;;;;4985292;28;20528;-69
2023/07/07 03:48:59;;;;;;;16.50;15.40;;;8.80;99.90;;;;;;4983622;28;20041;-71
2023/07/07 03:51:34;;;;;;;17.65;16.50;;;8.80;99.90;;;;;;4978646;28;20057;-71
2023/07/07 03:54:05;;;;;;;18.05;16.67;;;8.90;99.90;;;;;;4996826;28;20587;-70
2023/07/07 03:56:33;;;;;;;17.95;16.45;;;9.10;99.90;;;;;;4996184;28;20045;-71
2023/07/07 03:59:00;;;;;;;18.48;16.98;;;9.10;99.90;;;;;;4994049;28;20045;-71
2023/07/07 04:01:27;;;;;;;16.25;15.10;;;9.00;99.90;;;;;;4993023;28;20077;-71
2023/07/07 04:03:54;;;;;;;16.30;15.10;;;9.00;99.90;;;;;;4991707;28;20049;-70
2023/07/07 04:06:21;;;;;;;17.95;16.55;;;9.00;99.90;;;;;;4995606;28;20037;-71
2023/07/07 04:08:48;;;;;;;17.38;16.17;;;9.00;99.90;;;;;;4992762;28;20057;-70
2023/07/07 04:11:20;;;;;;;17.80;16.33;;;9.20;99.90;;;;;;4987959;28;20104;-68
2023/07/07 04:13:49;;;;;;;17.60;16.35;;;9.30;99.90;;;;;;4992725;28;20073;-70
2023/07/07 04:16:22;;;;;;;17.73;16.45;;;9.20;99.90;;;;;;4996201;28;20046;-70
2023/07/07 04:18:50;;;;;;;17.58;16.27;;;9.20;99.90;;;;;;5004156;28;20072;-71
2023/07/07 04:21:29;;;;;;;16.35;15.10;;;9.20;99.90;;;;;;5002030;28;20154;-71
2023/07/07 04:23:59;;;;;;;17.30;16.02;;;9.20;99.90;;;;;;4999588;28;20064;-71
2023/07/07 04:26:28;;;;;;;17.48;15.93;;;9.30;99.90;;;;;;4991869;28;20627;-71
2023/07/07 04:28:57;;;;;;;18.60;16.95;;;9.30;99.90;;;;;;4988796;28;20532;-70
2023/07/07 04:31:26;;;;;;;17.67;16.38;;;9.30;99.90;;;;;;4988526;28;20576;-71
2023/07/07 04:33:53;;;;;;;18.02;16.50;;;9.50;99.90;;;;;;4988443;28;20046;-71
2023/07/07 04:36:21;;;;;;;16.88;15.68;;;9.50;99.90;;;;;;4987219;28;20161;-72
2023/07/07 04:38:49;;;;;;;15.63;14.48;;;9.90;99.90;;;;;;4984662;28;20475;-70
2023/07/07 04:41:17;;;;;;;14.40;13.50;;;10.10;99.90;;;;;;4990356;28;20133;-70
2023/07/07 04:43:48;;;;;;;16.00;14.63;;;10.50;99.90;;;;;;4985718;28;20177;-70
2023/07/07 04:46:18;;;;;;;18.30;16.75;;;11.00;99.90;;;;;;4988434;28;20050;-70
2023/07/07 04:48:44;;;;;;;21.30;19.77;;;11.30;99.90;;;;;;4990410;28;20042;-71
2023/07/07 04:51:12;;;;;;;22.52;21.02;;;11.70;99.90;;;;;;4990588;28;20069;-72
2023/07/07 04:53:40;;;;;;;22.92;21.35;;;12.10;99.90;;;;;;4986202;28;20104;-71
2023/07/07 04:56:09;;;;;;;24.33;22.83;;;12.50;99.90;;;;;;4989934;28;20089;-70
2023/07/07 04:58:38;;;;;;;25.20;23.63;;;13.10;99.90;;;;;;4981897;28;20081;-70
2023/07/07 05:01:09;;;;;;;26.52;24.70;;;13.50;99.90;;;;;;4991805;28;20103;-70
2023/07/07 05:03:38;;;;;;;27.50;25.45;;;13.80;99.90;;;;;;4986204;28;20738;-70
2023/07/07 05:06:05;;;;;;;26.42;24.63;;;14.00;99.90;;;;;;4987693;28;20062;-70
2023/07/07 05:08:34;;;;;;;26.35;24.65;;;14.20;99.90;;;;;;4979055;28;20038;-71
2023/07/07 05:11:02;;;;;;;26.52;24.83;;;14.50;99.90;;;;;;4990705;28;20748;-71
2023/07/07 05:13:28;;;;;;;26.88;24.98;;;14.70;99.90;;;;;;4989994;28;20046;-71
2023/07/07 05:16:04;;;;;;;26.42;24.67;;;15.10;99.90;;;;;;4991079;28;20046;-70
2023/07/07 05:18:32;;;;;;;26.17;24.48;;;15.40;99.90;;;;;;4995015;28;20053;-70
2023/07/07 05:20:59;;;;;;;26.90;25.02;;;15.70;99.90;;;;;;4990176;28;20096;-71
2023/07/07 05:23:31;;;;;;;26.48;24.77;;;15.80;99.90;;;;;;4994590;28;20041;-70
2023/07/07 05:25:58;;;;;;;26.77;24.88;;;16.10;99.90;;;;;;4992553;28;20033;-70
2023/07/07 05:28:25;;;;;;;26.60;24.77;;;16.30;99.90;;;;;;5006830;28;20109;-70
2023/07/07 05:30:51;;;;;;;26.95;25.13;;;16.80;99.90;;;;;;5004147;28;20088;-71
2023/07/07 05:33:20;;;;;;;26.38;24.42;;;17.20;99.90;;;;;;4997919;28;20738;-71
2023/07/07 05:35:50;;;;;;;26.45;24.70;;;17.50;99.90;;;;;;4987373;28;20042;-71
2023/07/07 05:38:19;;;;;;;26.48;24.70;;;17.50;99.90;;;;;;4988988;28;20047;-71
2023/07/07 05:40:46;;;;;;;26.65;24.90;;;17.70;99.90;;;;;;4990722;28;20045;-71
2023/07/07 05:43:14;;;;;;;25.70;24.10;;;18.00;99.90;;;;;;4986999;28;20061;-72
2023/07/07 05:45:41;;;;;;;27.05;24.98;;;18.20;99.90;;;;;;4993319;28;20041;-70
2023/07/07 05:48:09;;;;;;;26.42;24.67;;;18.50;99.90;;;;;;4988726;28;20042;-72
2023/07/07 05:50:38;;;;;;;26.52;24.52;;;19.00;99.90;;;;;;4987911;28;20511;-70
2023/07/07 05:53:05;;;;;;;26.55;24.85;;;19.50;99.90;;;;;;4985921;28;20042;-69
2023/07/07 05:55:34;;;;;;;26.98;24.95;;;19.60;99.90;;;;;;4990642;28;20108;-70
2023/07/07 05:58:03;;;;;;;27.40;25.13;;;19.70;99.90;;;;;;4986583;28;20652;-70
2023/07/07 06:00:31;;;;;;;25.85;23.95;;;19.90;99.90;;;;;;4991125;28;20140;-69
2023/07/07 06:02:58;;;;;;;25.95;24.17;;;20.10;99.90;;;;;;4997410;28;20096;-69
2023/07/07 06:05:29;;;;;;;26.38;24.77;;;20.30;99.90;;;;;;4989857;28;20121;-71
2023/07/07 06:07:56;;;;;;;26.88;25.17;;;20.60;99.90;;;;;;4983425;28;20041;-70
2023/07/07 06:10:24;;;;;;;27.42;25.63;;;21.10;99.90;;;;;;4986762;28;20099;-71
2023/07/07 06:12:52;;;;;;;28.55;26.65;;;21.40;99.90;;;;;;4989813;28;20034;-71
2023/07/07 06:15:19;;;;;;;29.60;27.15;;;21.60;99.90;;;;;;4993766;28;20104;-71
2023/07/07 06:17:46;;;;;;;29.00;27.15;;;21.60;99.90;;;;;;4983457;28;20073;-71
2023/07/07 06:20:14;;;;;;;29.85;27.85;;;21.80;99.90;;;;;;4985027;28;20042;-71
2023/07/07 06:22:42;;;;;;;29.95;28.02;;;21.50;99.90;;;;;;4988729;28;20049;-70
2023/07/07 06:25:09;;;;;;;29.73;27.73;;;21.50;99.90;;;;;;4988653;28;20820;-70
2023/07/07 06:27:35;;;;;;;29.17;27.38;;;21.60;99.90;;;;;;4987505;28;20049;-71
2023/07/07 06:30:03;;;;;;;30.13;28.33;;;21.60;99.90;;;;;;4989309;28;20054;-70
2023/07/07 06:32:30;;;;;;;30.00;28.27;;;21.80;99.90;;;;;;4987364;28;20049;-69
2023/07/07 06:34:56;;;;;;;30.00;28.20;;;22.10;99.90;;;;;;4989508;28;20038;-71
2023/07/07 06:37:23;;;;;;;31.08;28.92;;;22.50;99.90;;;;;;4989002;28;20056;-72
2023/07/07 06:39:50;;;;;;;31.98;29.80;;;22.40;99.90;;;;;;4983477;28;20666;-70
2023/07/07 06:42:17;;;;;;;31.55;29.45;;;22.60;99.90;;;;;;4986221;28;20416;-70
2023/07/07 06:44:53;;;;;;;31.70;29.63;;;22.80;99.90;;;;;;4980517;28;20042;-71
2023/07/07 06:47:20;;;;;;;32.63;30.52;;;23.10;99.90;;;;;;4986826;28;20048;-71
2023/07/07 06:49:47;;;;;;;32.45;30.45;;;23.30;99.90;;;;;;4987680;28;20041;-71
2023/07/07 06:52:13;;;;;;;32.75;30.85;;;23.10;99.90;;;;;;4989409;28;20141;-71
2023/07/07 06:54:40;;;;;;;34.15;31.95;;;23.20;99.90;;;;;;4989275;28;20042;-71
2023/07/07 06:57:09;;;;;;;32.85;30.75;;;23.00;99.90;;;;;;4979804;28;20089;-72
2023/07/07 06:59:37;;;;;;;33.95;31.92;;;23.00;99.90;;;;;;4990710;28;20087;-71
2023/07/07 07:02:04;;;;;;;33.80;31.70;;;23.20;99.90;;;;;;4986335;28;20597;-70
2023/07/07 07:04:31;;;;;;;33.28;31.35;;;22.90;99.90;;;;;;4986350;28;20532;-70
2023/07/07 07:06:58;;;;;;;32.83;30.92;;;22.90;99.90;;;;;;4985920;28;20128;-71
2023/07/07 07:09:24;;;;;;;33.78;31.52;;;23.20;99.90;;;;;;4982458;28;20042;-71
2023/07/07 07:11:51;;;;;;;31.90;29.92;;;23.50;99.90;;;;;;4985997;28;20129;-71
2023/07/07 07:14:18;;;;;;;33.42;31.35;;;23.90;99.90;;;;;;4986544;28;20136;-70
2023/07/07 07:16:45;;;;;;;32.97;30.90;;;24.10;99.90;;;;;;4982335;28;20049;-71
2023/07/07 07:19:12;;;;;;;33.83;31.48;;;24.00;99.90;;;;;;4986073;28;20124;-70
2023/07/07 07:21:38;;;;;;;33.05;31.02;;;23.90;99.90;;;;;;4987331;28;20056;-70
2023/07/07 07:24:05;;;;;;;34.38;32.28;;;24.00;99.90;;;;;;4986450;28;20042;-71
2023/07/07 07:26:32;;;;;;;32.35;30.25;;;23.80;99.90;;;;;;4989902;28;20054;-70
2023/07/07 07:28:58;;;;;;;34.63;32.47;;;23.50;99.90;;;;;;4989673;28;20659;-70
2023/07/07 07:31:26;;;;;;;32.90;31.00;;;23.70;99.90;;;;;;4982172;28;20050;-70
2023/07/07 07:33:55;;;;;;;33.55;31.65;;;24.30;99.90;;;;;;4988203;28;20056;-69
2023/07/07 07:36:22;;;;;;;35.17;33.05;;;24.40;99.90;;;;;;4988256;28;20069;-71
2023/07/07 07:38:49;;;;;;;34.22;32.22;;;24.30;99.90;;;;;;4985102;28;20732;-70
2023/07/07 07:41:16;;;;;;;35.60;33.47;;;24.30;99.90;;;;;;4984835;28;20046;-70
2023/07/07 07:43:43;;;;;;;35.33;33.20;;;24.40;99.90;;;;;;4970532;28;20038;-71
2023/07/07 07:46:10;;;;;;;35.85;33.75;;;24.70;99.90;;;;;;4986863;28;20061;-71
2023/07/07 07:48:36;;;;;;;36.58;34.25;;;24.80;99.90;;;;;;4988656;28;20087;-70
2023/07/07 07:51:03;;;;;;;36.70;34.53;;;25.00;99.90;;;;;;4977236;28;20135;-70
2023/07/07 07:53:42;;;;;;;35.88;33.88;;;25.10;99.90;;;;;;4985225;28;20060;-70
2023/07/07 07:56:09;;;;;;;35.58;33.67;;;25.20;99.90;;;;;;4991318;28;20049;-71
2023/07/07 07:58:37;;;;;;;34.58;32.60;;;25.20;99.90;;;;;;4986469;28;20060;-73
2023/07/07 08:01:04;;;;;;;35.30;33.30;;;25.50;99.90;;;;;;4987284;28;20158;-70
2023/07/07 08:03:30;;;;;;;34.55;32.75;;;25.50;99.90;;;;;;4976922;28;20045;-72
2023/07/07 08:05:57;;;;;;;36.65;34.55;;;25.60;99.90;;;;;;4989730;28;20073;-71
2023/07/07 08:08:24;;;;;;;35.90;33.90;;;25.90;99.90;;;;;;4987338;28;20133;-73
2023/07/07 08:10:51;;;;;;;35.42;33.53;;;25.70;99.90;;;;;;4989467;28;20133;-72
2023/07/07 08:13:35;;;;;;;35.75;33.67;;;25.20;99.90;;;;;;4988777;28;20120;-73
2023/07/07 08:16:10;;;;;;;35.88;33.80;;;25.30;99.90;;;;;;4985347;28;20042;-74
2023/07/07 08:18:40;;;;;;;35.42;33.53;;;25.30;99.90;;;;;;4992895;28;20045;-72
2023/07/07 08:21:07;;;;;;;36.67;34.47;;;25.40;99.90;;;;;;4990753;28;20527;-72
2023/07/07 08:23:34;;;;;;;36.35;34.17;;;25.20;99.90;;;;;;4988435;28;20042;-72
2023/07/07 08:26:01;;;;;;;35.15;33.25;;;25.30;99.90;;;;;;4988624;28;20048;-71
2023/07/07 08:28:30;;;;;;;36.95;34.97;;;25.40;99.90;;;;;;4993199;28;20054;-72
2023/07/07 08:31:01;;;;;;;38.60;36.08;;;25.60;99.90;;;;;;4984826;28;20093;-71
2023/07/07 08:33:29;;;;;;;38.85;36.65;;;25.60;99.90;;;;;;4986839;28;20133;-71
2023/07/07 08:35:55;;;;;;;39.00;36.80;;;25.50;99.90;;;;;;4987548;28;20046;-72
2023/07/07 08:38:23;;;;;;;38.70;36.70;;;25.60;99.90;;;;;;4990333;28;20629;-71
2023/07/07 08:40:55;;;;;;;38.55;36.30;;;26.00;99.90;;;;;;4990022;28;20790;-70
2023/07/07 08:43:24;;;;;;;38.53;36.53;;;26.20;99.90;;;;;;4989555;28;20752;-71
2023/07/07 08:46:14;;;;;;;38.10;36.10;;;26.30;99.90;;;;;;4989614;28;20511;-70
2023/07/07 08:49:04;;;;;;;40.78;38.50;;;26.00;99.90;;;;;;4984648;28;20052;-70
2023/07/07 08:51:36;;;;;;;38.20;36.08;;;25.70;99.90;;;;;;4981970;28;20644;-70
2023/07/07 08:54:03;;;;;;;38.90;36.70;;;25.60;99.90;;;;;;4984168;28;20061;-71
2023/07/07 08:56:59;;;;;;;40.22;37.92;;;26.00;99.90;;;;;;4991305;28;20150;-71
2023/07/07 08:59:39;;;;;;;41.08;38.85;;;26.30;99.90;;;;;;4986106;28;20089;-70
2023/07/07 09:02:12;;;;;;;41.08;38.47;;;26.50;99.90;;;;;;4987389;28;20046;-70
2023/07/07 09:05:02;;;;;;;40.17;37.97;;;26.40;99.90;;;;;;4989047;28;20046;-70
2023/07/07 09:08:03;;;;;;;40.88;38.65;;;26.60;99.90;;;;;;4988533;28;20135;-71
2023/07/07 09:11:01;;;;;;;41.28;39.03;;;26.40;99.90;;;;;;4988865;28;20056;-73
2023/07/07 09:13:35;;;;;;;43.40;41.10;;;26.00;99.90;;;;;;4987746;28;20046;-73
2023/07/07 09:16:31;;;;;;;;;;;26.00;99.90;;;;;;4984819;28;20768;-72
2023/07/07 09:19:10;;;;;;;36.58;34.47;;;25.60;99.90;;;;;;4973844;28;19921;-71
2023/07/07 09:21:43;;;;;;;41.03;38.65;;;25.80;99.90;;;;;;4986559;28;20046;-70
2023/07/07 09:24:44;;;;;;;42.33;39.92;;;25.70;99.90;;;;;;4992548;28;20505;-71
2023/07/07 09:27:15;;;;;;;43.20;40.75;;;25.10;99.90;;;;;;4984747;28;20102;-72
2023/07/07 09:29:42;;;;;;;42.97;40.38;;;25.20;99.90;;;;;;4988370;28;20479;-70
2023/07/07 09:32:16;;;;;;;47.00;42.40;;;25.70;99.90;;;;;;4989561;28;20141;-72
2023/07/07 09:34:43;;;;;;;43.60;41.00;;;26.30;99.90;;;;;;4983660;28;20705;-72
2023/07/07 09:38:00;;;;;;;44.45;41.95;;;26.50;99.90;;;;;;4985251;28;20073;-71
2023/07/07 09:40:30;;;;;;;44.42;41.78;;;26.10;99.90;;;;;;4965491;28;20049;-71
2023/07/07 09:43:23;;;;;;;43.75;41.33;;;25.30;99.90;;;;;;4988929;28;20128;-71
2023/07/07 09:46:25;;;;;;;43.95;41.47;;;25.60;99.90;;;;;;4987587;28;20057;-70
2023/07/07 09:49:14;;;;;;;43.50;41.13;;;25.60;99.90;;;;;;4979756;28;20060;-72
2023/07/07 09:51:50;;;;;;;44.45;42.08;;;25.70;99.90;;;;;;4985577;28;20052;-71
2023/07/07 09:54:19;;;;;;;46.28;43.78;;;25.90;99.90;;;;;;4990255;28;20063;-71
2023/07/07 09:56:57;;;;;;;45.75;43.35;;;26.00;99.90;;;;;;5004054;28;20133;-70
2023/07/07 09:59:39;;;;;;;45.70;43.30;;;26.00;99.90;;;;;;5004679;28;20046;-73
2023/07/07 10:02:16;;;;;;;46.72;43.92;;;26.20;99.90;;;;;;4989017;28;20042;-71
2023/07/07 10:04:50;;;;;;;44.05;41.55;;;26.20;99.90;;;;;;4991506;28;20061;-71
2023/07/07 10:07:18;;;;;;;45.97;43.30;;;26.80;99.90;;;;;;4987029;28;20440;-71
2023/07/07 10:09:45;;;;;;;44.53;42.03;;;27.20;99.90;;;;;;4988728;28;20039;-71
2023/07/07 10:12:15;;;;;;;45.03;42.42;;;26.30;99.90;;;;;;4988334;28;20124;-72
2023/07/07 10:14:55;;;;;;;43.97;41.42;;;26.20;99.90;;;;;;4987923;28;20108;-71
2023/07/07 10:17:50;;;;;;;46.25;43.85;;;25.60;99.90;;;;;;4978505;28;20049;-71
2023/07/07 10:20:17;;;;;;;46.53;43.92;;;25.90;99.90;;;;;;4973909;28;20069;-71
2023/07/07 10:22:44;;;;;;;47.38;44.75;;;26.30;99.90;;;;;;4988730;28;20386;-72
2023/07/07 10:25:15;;;;;;;45.45;42.78;;;26.60;99.90;;;;;;4987054;28;20057;-71
2023/07/07 10:27:52;;;;;;;46.15;43.65;;;26.90;99.90;;;;;;4988903;28;20050;-72
2023/07/07 10:30:20;;;;;;;47.10;44.45;;;27.60;99.80;;;;;;4985355;28;20046;-71
2023/07/07 10:32:51;;;;;;;48.33;45.63;;;28.00;99.90;;;;;;4989953;28;20061;-71
2023/07/07 10:35:20;;;;;;;46.22;43.63;;;27.80;99.90;;;;;;4991450;28;20208;-71
2023/07/07 10:37:47;;;;;;;47.05;44.55;;;27.40;98.70;;;;;;4988910;28;20407;-72
2023/07/07 10:40:24;;;;;;;46.47;43.92;;;27.40;99.60;;;;;;4988469;28;20828;-71
2023/07/07 10:42:55;;;;;;;48.22;45.70;;;27.50;98.10;;;;;;4989051;28;20046;-72
2023/07/07 10:45:24;;;;;;;48.03;45.33;;;27.50;98.30;;;;;;4983416;28;20046;-72
2023/07/07 10:47:51;;;;;;;46.03;43.53;;;27.70;97.40;;;;;;4993727;28;20140;-72
2023/07/07 10:50:22;;;;;;;46.70;44.10;;;27.90;99.30;;;;;;4986007;28;20046;-71
2023/07/07 10:53:07;;;;;;;47.92;45.33;;;28.00;96.80;;;;;;4987811;28;20512;-72
2023/07/07 10:55:45;;;;;;;49.35;46.75;;;28.10;97.20;;;;;;5003227;28;20050;-73
2023/07/07 10:58:34;;;;;;;48.90;46.30;;;28.30;97.80;;;;;;4990392;28;20052;-72
2023/07/07 11:01:28;;;;;;;50.50;47.67;;;28.20;97.60;;;;;;4987518;28;20115;-70
2023/07/07 11:04:13;;;;;;;48.83;46.28;;;28.00;98.20;;;;;;4990260;28;20061;-71
2023/07/07 11:06:49;;;;;;;50.20;47.58;;;28.20;98.00;;;;;;4993023;28;20733;-72
2023/07/07 11:09:35;;;;;;;50.35;47.65;;;28.20;98.50;;;;;;4993444;28;20073;-71
2023/07/07 11:12:13;;;;;;;49.35;46.53;;;28.60;97.90;;;;;;5006242;28;20093;-72
2023/07/07 11:15:16;;;;;;;50.20;47.30;;;28.70;96.50;;;;;;4990826;28;20069;-70
2023/07/07 11:18:25;;;;;;;51.70;48.80;;;28.10;96.60;;;;;;5000035;28;20077;-71
2023/07/07 11:20:55;;;;;;;50.88;48.22;;;28.10;97.50;;;;;;4991719;28;20047;-71
2023/07/07 11:23:47;;;;;;;48.97;46.28;;;28.40;97.60;;;;;;4985616;28;20046;-71
2023/07/07 11:26:20;;;;;;;51.15;48.22;;;28.40;96.70;;;;;;4990398;28;20061;-71
2023/07/07 11:28:54;;;;;;;52.03;49.40;;;28.50;96.00;;;;;;4995914;28;20054;-71
2023/07/07 11:31:38;;;;;;;52.38;49.58;;;28.70;96.30;;;;;;4997947;28;20077;-70
2023/07/07 11:34:33;;;;;;;51.53;48.73;;;28.70;95.60;;;;;;5000563;28;20042;-71
2023/07/07 11:37:18;;;;;;;56.25;52.63;;;28.10;97.00;;;;;;5001789;28;20100;-71
2023/07/07 11:40:02;;;;;;;51.50;48.80;;;28.50;97.40;;;;;;4995984;28;20056;-72
2023/07/07 11:42:59;;;;;;;54.17;51.28;;;28.60;95.30;;;;;;5003459;28;20042;-72
2023/07/07 11:45:43;;;;;;;54.88;51.90;;;28.10;95.60;;;;;;4972590;28;20043;-72
2023/07/07 11:48:41;;;;;;;54.42;51.63;;;28.10;97.20;;;;;;4991651;28;20046;-72
2023/07/07 11:51:16;;;;;;;52.83;50.08;;;28.10;96.10;;;;;;4992560;28;20038;-71
2023/07/07 11:53:51;;;;;;;54.75;51.75;;;28.60;96.50;;;;;;4993090;28;20058;-71
2023/07/07 11:56:46;;;;;;;52.35;49.55;;;28.90;95.00;;;;;;4993092;28;20070;-72
2023/07/07 11:59:32;;;;;;;53.55;50.85;;;29.00;93.80;;;;;;4989890;28;20069;-72
2023/07/07 12:02:01;;;;;;;53.92;50.92;;;28.90;93.40;;;;;;4992850;28;20085;-71
2023/07/07 12:04:39;;;;;;;53.50;50.47;;;28.40;94.60;;;;;;4992579;28;20509;-71
2023/07/07 12:07:20;;;;;;;54.08;51.38;;;28.50;94.60;;;;;;4992639;28;20112;-72
2023/07/07 12:09:53;;;;;;;53.47;50.67;;;28.20;94.50;;;;;;4990620;28;20046;-72
2023/07/07 12:12:27;;;;;;;45.97;43.40;;;28.20;96.00;;;;;;5002296;28;20049;-71
2023/07/07 12:15:09;;;;;;;54.22;51.22;;;28.10;95.60;;;;;;4996265;28;20038;-72
2023/07/07 12:17:40;;;;;;;53.05;50.35;;;28.50;96.00;;;;;;4985369;28;20739;-72
2023/07/07 12:20:26;;;;;;;54.85;52.05;;;28.50;97.20;;;;;;4989216;28;20058;-73
2023/07/07 12:22:54;;;;;;;56.38;53.60;;;28.50;96.30;;;;;;4990578;28;20106;-71
2023/07/07 12:25:28;;;;;;;56.67;53.78;;;28.20;96.50;;;;;;4990345;28;20046;-72
2023/07/07 12:27:57;;;;;;;55.80;52.72;;;27.90;96.10;;;;;;4988500;28;20041;-72
2023/07/07 12:30:30;;;;;;;54.85;51.78;;;28.00;95.80;;;;;;4985342;28;20524;-73
2023/07/07 12:32:58;;;;;;;54.23;51.43;;;27.90;95.50;;;;;;4991607;28;20052;-73
2023/07/07 12:35:52;;;;;;;52.78;49.97;;;28.10;96.60;;;;;;4990206;28;20141;-72
2023/07/07 12:38:30;;;;;;;57.30;54.30;;;28.50;96.60;;;;;;4992604;28;20350;-72
2023/07/07 12:41:11;;;;;;;57.28;54.45;;;28.30;95.80;;;;;;4991321;28;20169;-72
2023/07/07 12:43:44;;;;;;;54.38;51.88;;;28.20;96.00;;;;;;4995686;28;20069;-72
2023/07/07 12:46:22;;;;;;;55.50;52.75;;;28.00;96.00;;;;;;4992255;28;20088;-71
2023/07/07 12:48:52;;;;;;;57.50;54.60;;;27.90;97.40;;;;;;4999218;28;20046;-72
2023/07/07 12:51:22;;;;;;;58.30;55.40;;;27.00;98.00;;;;;;4996927;28;20130;-70
2023/07/07 12:53:53;;;;;;;58.78;55.88;;;27.10;99.00;;;;;;4994215;28;20042;-71
2023/07/07 12:56:28;;;;;;;59.10;56.00;;;26.70;97.90;;;;;;4992668;28;20054;-71